sensor_id;sensor_type;location;lat;lon;timestamp;P1;durP1;ratioP1;P2;durP2;ratioP2
51824;SDS011;37879;52.986;6.282;2024-03-07T00:02:20;29.45;;;15.40;;
51824;SDS011;37879;52.986;6.282;2024-03-07T00:04:45;29.45;;;15.27;;
51824;SDS011;37879;52.986;6.282;2024-03-07T00:07:11;26.00;;;15.75;;
51824;SDS011;37879;52.986;6.282;2024-03-07T00:09:37;28.73;;;16.02;;
51824;SDS011;37879;52.986;6.282;2024-03-07T00:12:03;29.20;;;15.75;;
51824;SDS011;37879;52.986;6.282;2024-03-07T00:14:31;25.65;;;14.57;;
51824;SDS011;37879;52.986;6.282;2024-03-07T00:16:58;26.60;;;14.80;;
51824;SDS011;37879;52.986;6.282;2024-03-07T00:19:26;22.63;;;13.18;;
51824;SDS011;37879;52.986;6.282;2024-03-07T00:21:53;26.77;;;15.23;;
51824;SDS011;37879;52.986;6.282;2024-03-07T00:24:19;29.45;;;14.48;;
51824;SDS011;37879;52.986;6.282;2024-03-07T00:26:46;21.65;;;12.38;;
51824;SDS011;37879;52.986;6.282;2024-03-07T00:29:11;25.48;;;15.25;;
51824;SDS011;37879;52.986;6.282;2024-03-07T00:31:37;26.65;;;14.30;;
51824;SDS011;37879;52.986;6.282;2024-03-07T00:34:03;27.77;;;15.55;;
51824;SDS011;37879;52.986;6.282;2024-03-07T00:36:28;25.92;;;14.77;;
51824;SDS011;37879;52.986;6.282;2024-03-07T00:38:54;23.52;;;12.80;;
51824;SDS011;37879;52.986;6.282;2024-03-07T00:41:20;24.48;;;14.23;;
51824;SDS011;37879;52.986;6.282;2024-03-07T00:43:45;24.90;;;14.52;;
51824;SDS011;37879;52.986;6.282;2024-03-07T00:46:12;25.52;;;15.02;;
51824;SDS011;37879;52.986;6.282;2024-03-07T00:48:37;24.77;;;14.38;;
51824;SDS011;37879;52.986;6.282;2024-03-07T00:51:03;21.05;;;12.50;;
51824;SDS011;37879;52.986;6.282;2024-03-07T00:53:29;26.20;;;13.65;;
51824;SDS011;37879;52.986;6.282;2024-03-07T00:55:56;25.88;;;14.30;;
51824;SDS011;37879;52.986;6.282;2024-03-07T00:58:22;24.55;;;14.50;;
51824;SDS011;37879;52.986;6.282;2024-03-07T01:00:47;26.25;;;13.30;;
51824;SDS011;37879;52.986;6.282;2024-03-07T01:03:13;22.73;;;12.75;;
51824;SDS011;37879;52.986;6.282;2024-03-07T01:05:39;25.35;;;13.88;;
51824;SDS011;37879;52.986;6.282;2024-03-07T01:08:05;24.08;;;12.93;;
51824;SDS011;37879;52.986;6.282;2024-03-07T01:10:31;23.35;;;12.57;;
51824;SDS011;37879;52.986;6.282;2024-03-07T01:12:57;22.10;;;13.23;;
51824;SDS011;37879;52.986;6.282;2024-03-07T01:15:26;24.10;;;13.13;;
51824;SDS011;37879;52.986;6.282;2024-03-07T01:17:55;23.77;;;13.32;;
51824;SDS011;37879;52.986;6.282;2024-03-07T01:20:21;23.75;;;14.02;;
51824;SDS011;37879;52.986;6.282;2024-03-07T01:22:49;24.10;;;13.98;;
51824;SDS011;37879;52.986;6.282;2024-03-07T01:25:16;22.98;;;13.25;;
51824;SDS011;37879;52.986;6.282;2024-03-07T01:27:42;22.35;;;12.70;;
51824;SDS011;37879;52.986;6.282;2024-03-07T01:30:09;23.30;;;12.40;;
51824;SDS011;37879;52.986;6.282;2024-03-07T01:32:35;23.90;;;14.40;;
51824;SDS011;37879;52.986;6.282;2024-03-07T01:35:01;21.75;;;12.07;;
51824;SDS011;37879;52.986;6.282;2024-03-07T01:37:27;24.50;;;13.85;;
51824;SDS011;37879;52.986;6.282;2024-03-07T01:39:53;23.60;;;12.15;;
51824;SDS011;37879;52.986;6.282;2024-03-07T01:42:19;21.35;;;12.98;;
51824;SDS011;37879;52.986;6.282;2024-03-07T01:44:45;24.90;;;13.70;;
51824;SDS011;37879;52.986;6.282;2024-03-07T01:47:11;20.52;;;11.75;;
51824;SDS011;37879;52.986;6.282;2024-03-07T01:49:37;21.33;;;12.68;;
51824;SDS011;37879;52.986;6.282;2024-03-07T01:52:04;21.52;;;12.30;;
51824;SDS011;37879;52.986;6.282;2024-03-07T01:54:30;22.90;;;12.60;;
51824;SDS011;37879;52.986;6.282;2024-03-07T01:56:56;20.60;;;12.10;;
51824;SDS011;37879;52.986;6.282;2024-03-07T01:59:23;22.25;;;12.48;;
51824;SDS011;37879;52.986;6.282;2024-03-07T02:01:50;21.30;;;13.10;;
51824;SDS011;37879;52.986;6.282;2024-03-07T02:04:15;19.70;;;12.18;;
51824;SDS011;37879;52.986;6.282;2024-03-07T02:06:41;21.05;;;11.27;;
51824;SDS011;37879;52.986;6.282;2024-03-07T02:09:07;20.55;;;12.10;;
51824;SDS011;37879;52.986;6.282;2024-03-07T02:11:33;20.35;;;12.13;;
51824;SDS011;37879;52.986;6.282;2024-03-07T02:13:59;20.50;;;11.18;;
51824;SDS011;37879;52.986;6.282;2024-03-07T02:16:25;21.55;;;11.70;;
51824;SDS011;37879;52.986;6.282;2024-03-07T02:18:50;21.05;;;12.63;;
51824;SDS011;37879;52.986;6.282;2024-03-07T02:21:16;23.45;;;12.15;;
51824;SDS011;37879;52.986;6.282;2024-03-07T02:23:42;22.15;;;12.25;;
51824;SDS011;37879;52.986;6.282;2024-03-07T02:26:08;24.33;;;13.52;;
51824;SDS011;37879;52.986;6.282;2024-03-07T02:28:34;19.48;;;12.63;;
51824;SDS011;37879;52.986;6.282;2024-03-07T02:31:00;20.70;;;11.52;;
51824;SDS011;37879;52.986;6.282;2024-03-07T02:33:26;20.80;;;12.70;;
51824;SDS011;37879;52.986;6.282;2024-03-07T02:35:52;22.63;;;12.38;;
51824;SDS011;37879;52.986;6.282;2024-03-07T02:38:18;25.10;;;13.60;;
51824;SDS011;37879;52.986;6.282;2024-03-07T02:40:44;24.50;;;12.52;;
51824;SDS011;37879;52.986;6.282;2024-03-07T02:43:11;21.67;;;12.23;;
51824;SDS011;37879;52.986;6.282;2024-03-07T02:45:37;21.63;;;12.73;;
51824;SDS011;37879;52.986;6.282;2024-03-07T02:48:03;19.23;;;10.55;;
51824;SDS011;37879;52.986;6.282;2024-03-07T02:50:32;22.00;;;12.07;;
51824;SDS011;37879;52.986;6.282;2024-03-07T02:52:58;24.70;;;12.52;;
51824;SDS011;37879;52.986;6.282;2024-03-07T02:55:23;24.65;;;12.77;;
51824;SDS011;37879;52.986;6.282;2024-03-07T02:57:49;23.15;;;13.23;;
51824;SDS011;37879;52.986;6.282;2024-03-07T03:00:15;20.90;;;11.63;;
51824;SDS011;37879;52.986;6.282;2024-03-07T03:02:51;22.23;;;11.30;;
51824;SDS011;37879;52.986;6.282;2024-03-07T03:05:18;20.20;;;12.20;;
51824;SDS011;37879;52.986;6.282;2024-03-07T03:07:44;20.92;;;12.02;;
51824;SDS011;37879;52.986;6.282;2024-03-07T03:10:16;21.83;;;12.75;;
51824;SDS011;37879;52.986;6.282;2024-03-07T03:12:42;19.33;;;11.13;;
51824;SDS011;37879;52.986;6.282;2024-03-07T03:15:09;22.08;;;12.48;;
51824;SDS011;37879;52.986;6.282;2024-03-07T03:17:36;24.13;;;13.70;;
51824;SDS011;37879;52.986;6.282;2024-03-07T03:20:02;21.60;;;12.40;;
51824;SDS011;37879;52.986;6.282;2024-03-07T03:22:40;23.40;;;12.35;;
51824;SDS011;37879;52.986;6.282;2024-03-07T03:25:06;20.10;;;11.90;;
51824;SDS011;37879;52.986;6.282;2024-03-07T03:27:32;22.67;;;12.68;;
51824;SDS011;37879;52.986;6.282;2024-03-07T03:29:57;21.67;;;12.25;;
51824;SDS011;37879;52.986;6.282;2024-03-07T03:32:25;21.00;;;11.40;;
51824;SDS011;37879;52.986;6.282;2024-03-07T03:34:51;19.40;;;10.48;;
51824;SDS011;37879;52.986;6.282;2024-03-07T03:37:17;17.33;;;10.55;;
51824;SDS011;37879;52.986;6.282;2024-03-07T03:39:43;20.55;;;11.13;;
51824;SDS011;37879;52.986;6.282;2024-03-07T03:42:09;19.77;;;11.48;;
51824;SDS011;37879;52.986;6.282;2024-03-07T03:44:34;20.50;;;10.82;;
51824;SDS011;37879;52.986;6.282;2024-03-07T03:47:00;21.23;;;11.15;;
51824;SDS011;37879;52.986;6.282;2024-03-07T03:49:27;18.77;;;10.57;;
51824;SDS011;37879;52.986;6.282;2024-03-07T03:51:52;17.85;;;10.48;;
51824;SDS011;37879;52.986;6.282;2024-03-07T03:54:18;15.65;;;9.90;;
51824;SDS011;37879;52.986;6.282;2024-03-07T03:56:44;20.10;;;10.60;;
51824;SDS011;37879;52.986;6.282;2024-03-07T03:59:09;21.38;;;11.10;;
51824;SDS011;37879;52.986;6.282;2024-03-07T04:01:35;19.20;;;9.95;;
51824;SDS011;37879;52.986;6.282;2024-03-07T04:04:01;18.38;;;10.90;;
51824;SDS011;37879;52.986;6.282;2024-03-07T04:06:26;18.42;;;10.57;;
51824;SDS011;37879;52.986;6.282;2024-03-07T04:08:52;21.35;;;10.85;;
51824;SDS011;37879;52.986;6.282;2024-03-07T04:11:20;20.80;;;11.50;;
51824;SDS011;37879;52.986;6.282;2024-03-07T04:13:46;19.65;;;10.43;;
51824;SDS011;37879;52.986;6.282;2024-03-07T04:16:12;20.58;;;11.60;;
51824;SDS011;37879;52.986;6.282;2024-03-07T04:18:39;20.52;;;10.52;;
51824;SDS011;37879;52.986;6.282;2024-03-07T04:21:04;20.30;;;11.18;;
51824;SDS011;37879;52.986;6.282;2024-03-07T04:23:30;22.30;;;11.38;;
51824;SDS011;37879;52.986;6.282;2024-03-07T04:25:55;22.15;;;11.80;;
51824;SDS011;37879;52.986;6.282;2024-03-07T04:28:21;17.85;;;9.93;;
51824;SDS011;37879;52.986;6.282;2024-03-07T04:30:47;18.45;;;10.00;;
51824;SDS011;37879;52.986;6.282;2024-03-07T04:33:14;20.00;;;10.07;;
51824;SDS011;37879;52.986;6.282;2024-03-07T04:35:40;17.95;;;10.55;;
51824;SDS011;37879;52.986;6.282;2024-03-07T04:38:05;18.48;;;10.27;;
51824;SDS011;37879;52.986;6.282;2024-03-07T04:40:36;17.02;;;9.45;;
51824;SDS011;37879;52.986;6.282;2024-03-07T04:43:02;20.60;;;10.85;;
51824;SDS011;37879;52.986;6.282;2024-03-07T04:45:28;17.83;;;9.38;;
51824;SDS011;37879;52.986;6.282;2024-03-07T04:47:54;19.17;;;9.25;;
51824;SDS011;37879;52.986;6.282;2024-03-07T04:50:20;16.50;;;9.63;;
51824;SDS011;37879;52.986;6.282;2024-03-07T04:52:46;17.65;;;9.82;;
51824;SDS011;37879;52.986;6.282;2024-03-07T04:55:11;17.77;;;9.52;;
51824;SDS011;37879;52.986;6.282;2024-03-07T04:57:38;20.27;;;12.05;;
51824;SDS011;37879;52.986;6.282;2024-03-07T05:00:08;18.67;;;10.85;;
51824;SDS011;37879;52.986;6.282;2024-03-07T05:02:44;18.65;;;9.93;;
51824;SDS011;37879;52.986;6.282;2024-03-07T05:05:11;20.27;;;10.45;;
51824;SDS011;37879;52.986;6.282;2024-03-07T05:07:38;17.35;;;9.68;;
51824;SDS011;37879;52.986;6.282;2024-03-07T05:10:05;19.42;;;10.45;;
51824;SDS011;37879;52.986;6.282;2024-03-07T05:12:32;18.45;;;10.05;;
51824;SDS011;37879;52.986;6.282;2024-03-07T05:14:58;21.08;;;11.25;;
51824;SDS011;37879;52.986;6.282;2024-03-07T05:17:24;21.50;;;10.38;;
51824;SDS011;37879;52.986;6.282;2024-03-07T05:19:50;15.07;;;8.75;;
51824;SDS011;37879;52.986;6.282;2024-03-07T05:22:15;18.05;;;9.43;;
51824;SDS011;37879;52.986;6.282;2024-03-07T05:24:42;14.98;;;9.27;;
51824;SDS011;37879;52.986;6.282;2024-03-07T05:27:08;16.33;;;9.93;;
51824;SDS011;37879;52.986;6.282;2024-03-07T05:29:37;17.42;;;9.68;;
51824;SDS011;37879;52.986;6.282;2024-03-07T05:32:19;17.02;;;9.60;;
51824;SDS011;37879;52.986;6.282;2024-03-07T05:34:46;20.65;;;10.10;;
51824;SDS011;37879;52.986;6.282;2024-03-07T05:37:12;20.45;;;10.63;;
51824;SDS011;37879;52.986;6.282;2024-03-07T05:39:38;18.50;;;10.10;;
51824;SDS011;37879;52.986;6.282;2024-03-07T05:42:04;16.85;;;9.75;;
51824;SDS011;37879;52.986;6.282;2024-03-07T05:44:31;18.10;;;9.93;;
51824;SDS011;37879;52.986;6.282;2024-03-07T05:46:57;22.48;;;11.57;;
51824;SDS011;37879;52.986;6.282;2024-03-07T05:49:23;16.40;;;9.48;;
51824;SDS011;37879;52.986;6.282;2024-03-07T05:51:49;20.08;;;10.80;;
51824;SDS011;37879;52.986;6.282;2024-03-07T05:54:15;23.52;;;11.55;;
51824;SDS011;37879;52.986;6.282;2024-03-07T05:56:40;18.52;;;10.50;;
51824;SDS011;37879;52.986;6.282;2024-03-07T05:59:07;19.90;;;10.90;;
51824;SDS011;37879;52.986;6.282;2024-03-07T06:01:34;18.30;;;10.43;;
51824;SDS011;37879;52.986;6.282;2024-03-07T06:04:01;19.15;;;10.45;;
51824;SDS011;37879;52.986;6.282;2024-03-07T06:06:27;17.67;;;9.43;;
51824;SDS011;37879;52.986;6.282;2024-03-07T06:08:53;21.08;;;11.20;;
51824;SDS011;37879;52.986;6.282;2024-03-07T06:11:19;20.42;;;10.65;;
51824;SDS011;37879;52.986;6.282;2024-03-07T06:13:49;19.88;;;11.20;;
51824;SDS011;37879;52.986;6.282;2024-03-07T06:16:15;18.90;;;10.60;;
51824;SDS011;37879;52.986;6.282;2024-03-07T06:18:41;16.92;;;11.05;;
51824;SDS011;37879;52.986;6.282;2024-03-07T06:21:07;18.55;;;11.15;;
51824;SDS011;37879;52.986;6.282;2024-03-07T06:23:33;16.95;;;9.85;;
51824;SDS011;37879;52.986;6.282;2024-03-07T06:25:59;16.80;;;10.02;;
51824;SDS011;37879;52.986;6.282;2024-03-07T06:28:26;16.10;;;10.82;;
51824;SDS011;37879;52.986;6.282;2024-03-07T06:30:55;17.83;;;10.38;;
51824;SDS011;37879;52.986;6.282;2024-03-07T06:33:21;19.30;;;10.65;;
51824;SDS011;37879;52.986;6.282;2024-03-07T06:35:47;16.90;;;10.13;;
51824;SDS011;37879;52.986;6.282;2024-03-07T06:38:13;17.50;;;10.05;;
51824;SDS011;37879;52.986;6.282;2024-03-07T06:40:39;18.88;;;10.85;;
51824;SDS011;37879;52.986;6.282;2024-03-07T06:43:07;21.95;;;11.35;;
51824;SDS011;37879;52.986;6.282;2024-03-07T06:45:35;20.52;;;11.82;;
51824;SDS011;37879;52.986;6.282;2024-03-07T06:48:07;21.85;;;11.43;;
51824;SDS011;37879;52.986;6.282;2024-03-07T06:50:36;20.83;;;11.75;;
51824;SDS011;37879;52.986;6.282;2024-03-07T06:53:06;19.95;;;11.13;;
51824;SDS011;37879;52.986;6.282;2024-03-07T06:55:32;20.40;;;11.38;;
51824;SDS011;37879;52.986;6.282;2024-03-07T06:58:01;21.65;;;12.32;;
51824;SDS011;37879;52.986;6.282;2024-03-07T07:00:29;19.83;;;11.52;;
51824;SDS011;37879;52.986;6.282;2024-03-07T07:02:57;31.27;;;14.18;;
51824;SDS011;37879;52.986;6.282;2024-03-07T07:05:22;22.08;;;12.63;;
51824;SDS011;37879;52.986;6.282;2024-03-07T07:07:48;21.38;;;11.90;;
51824;SDS011;37879;52.986;6.282;2024-03-07T07:10:14;20.58;;;11.95;;
51824;SDS011;37879;52.986;6.282;2024-03-07T07:12:46;21.60;;;12.82;;
51824;SDS011;37879;52.986;6.282;2024-03-07T07:15:17;22.67;;;13.38;;
51824;SDS011;37879;52.986;6.282;2024-03-07T07:17:47;22.13;;;13.23;;
51824;SDS011;37879;52.986;6.282;2024-03-07T07:20:16;24.27;;;13.75;;
51824;SDS011;37879;52.986;6.282;2024-03-07T07:22:43;23.50;;;14.23;;
51824;SDS011;37879;52.986;6.282;2024-03-07T07:25:11;24.17;;;13.80;;
51824;SDS011;37879;52.986;6.282;2024-03-07T07:27:41;25.17;;;14.13;;
51824;SDS011;37879;52.986;6.282;2024-03-07T07:30:11;24.45;;;14.27;;
51824;SDS011;37879;52.986;6.282;2024-03-07T07:32:39;29.02;;;16.08;;
51824;SDS011;37879;52.986;6.282;2024-03-07T07:35:05;26.35;;;14.60;;
51824;SDS011;37879;52.986;6.282;2024-03-07T07:37:44;27.63;;;14.90;;
51824;SDS011;37879;52.986;6.282;2024-03-07T07:40:13;24.57;;;12.87;;
51824;SDS011;37879;52.986;6.282;2024-03-07T07:42:47;24.02;;;14.57;;
51824;SDS011;37879;52.986;6.282;2024-03-07T07:45:16;26.20;;;14.80;;
51824;SDS011;37879;52.986;6.282;2024-03-07T07:47:46;26.52;;;15.40;;
51824;SDS011;37879;52.986;6.282;2024-03-07T07:50:17;30.35;;;15.55;;
51824;SDS011;37879;52.986;6.282;2024-03-07T07:52:47;32.28;;;16.02;;
51824;SDS011;37879;52.986;6.282;2024-03-07T07:55:18;34.33;;;18.05;;
51824;SDS011;37879;52.986;6.282;2024-03-07T07:57:57;38.10;;;19.80;;
51824;SDS011;37879;52.986;6.282;2024-03-07T08:00:27;39.90;;;18.65;;
51824;SDS011;37879;52.986;6.282;2024-03-07T08:05:27;36.75;;;19.65;;
51824;SDS011;37879;52.986;6.282;2024-03-07T08:07:55;37.65;;;20.42;;
51824;SDS011;37879;52.986;6.282;2024-03-07T08:10:23;42.05;;;21.58;;
51824;SDS011;37879;52.986;6.282;2024-03-07T08:12:51;45.60;;;23.35;;
51824;SDS011;37879;52.986;6.282;2024-03-07T08:15:17;42.38;;;20.20;;
51824;SDS011;37879;52.986;6.282;2024-03-07T08:17:43;42.22;;;21.83;;
51824;SDS011;37879;52.986;6.282;2024-03-07T08:20:10;40.47;;;21.25;;
51824;SDS011;37879;52.986;6.282;2024-03-07T08:22:38;38.17;;;20.80;;
51824;SDS011;37879;52.986;6.282;2024-03-07T08:25:06;41.80;;;23.17;;
51824;SDS011;37879;52.986;6.282;2024-03-07T08:27:38;40.95;;;20.23;;
51824;SDS011;37879;52.986;6.282;2024-03-07T08:30:07;43.03;;;22.10;;
51824;SDS011;37879;52.986;6.282;2024-03-07T08:32:41;37.63;;;19.92;;
51824;SDS011;37879;52.986;6.282;2024-03-07T08:35:08;38.53;;;20.65;;
51824;SDS011;37879;52.986;6.282;2024-03-07T08:37:38;36.30;;;18.25;;
51824;SDS011;37879;52.986;6.282;2024-03-07T08:40:05;30.08;;;15.50;;
51824;SDS011;37879;52.986;6.282;2024-03-07T08:42:41;36.88;;;18.80;;
51824;SDS011;37879;52.986;6.282;2024-03-07T08:45:07;33.17;;;17.27;;
51824;SDS011;37879;52.986;6.282;2024-03-07T08:47:35;37.78;;;18.58;;
51824;SDS011;37879;52.986;6.282;2024-03-07T08:50:02;36.53;;;19.80;;
51824;SDS011;37879;52.986;6.282;2024-03-07T08:52:33;35.55;;;18.92;;
51824;SDS011;37879;52.986;6.282;2024-03-07T08:55:02;37.70;;;19.98;;
51824;SDS011;37879;52.986;6.282;2024-03-07T08:57:28;31.50;;;17.25;;
51824;SDS011;37879;52.986;6.282;2024-03-07T08:59:54;34.92;;;18.33;;
51824;SDS011;37879;52.986;6.282;2024-03-07T09:02:19;32.00;;;16.88;;
51824;SDS011;37879;52.986;6.282;2024-03-07T09:04:45;34.47;;;18.55;;
51824;SDS011;37879;52.986;6.282;2024-03-07T09:07:11;33.63;;;18.10;;
51824;SDS011;37879;52.986;6.282;2024-03-07T09:09:39;38.00;;;20.40;;
51824;SDS011;37879;52.986;6.282;2024-03-07T09:12:08;33.95;;;16.80;;
51824;SDS011;37879;52.986;6.282;2024-03-07T09:14:34;32.50;;;17.83;;
51824;SDS011;37879;52.986;6.282;2024-03-07T09:17:01;33.92;;;17.65;;
51824;SDS011;37879;52.986;6.282;2024-03-07T09:19:27;30.25;;;17.35;;
51824;SDS011;37879;52.986;6.282;2024-03-07T09:21:53;33.40;;;16.92;;
51824;SDS011;37879;52.986;6.282;2024-03-07T09:24:20;33.95;;;17.98;;
51824;SDS011;37879;52.986;6.282;2024-03-07T09:26:52;31.80;;;18.65;;
51824;SDS011;37879;52.986;6.282;2024-03-07T09:29:18;30.27;;;16.88;;
51824;SDS011;37879;52.986;6.282;2024-03-07T09:31:45;33.35;;;19.75;;
51824;SDS011;37879;52.986;6.282;2024-03-07T09:34:11;28.55;;;16.20;;
51824;SDS011;37879;52.986;6.282;2024-03-07T09:36:38;35.53;;;16.52;;
51824;SDS011;37879;52.986;6.282;2024-03-07T09:39:06;29.27;;;16.25;;
51824;SDS011;37879;52.986;6.282;2024-03-07T09:41:33;31.10;;;16.15;;
51824;SDS011;37879;52.986;6.282;2024-03-07T09:43:59;27.75;;;15.43;;
51824;SDS011;37879;52.986;6.282;2024-03-07T09:46:26;27.05;;;14.73;;
51824;SDS011;37879;52.986;6.282;2024-03-07T09:48:52;31.42;;;15.32;;
51824;SDS011;37879;52.986;6.282;2024-03-07T09:51:22;28.75;;;14.52;;
51824;SDS011;37879;52.986;6.282;2024-03-07T09:53:49;27.42;;;15.35;;
51824;SDS011;37879;52.986;6.282;2024-03-07T09:56:19;25.95;;;13.10;;
51824;SDS011;37879;52.986;6.282;2024-03-07T09:58:51;24.25;;;13.10;;
51824;SDS011;37879;52.986;6.282;2024-03-07T10:01:19;25.35;;;13.82;;
51824;SDS011;37879;52.986;6.282;2024-03-07T10:03:47;27.90;;;14.52;;
51824;SDS011;37879;52.986;6.282;2024-03-07T10:06:13;29.00;;;15.07;;
51824;SDS011;37879;52.986;6.282;2024-03-07T10:08:42;31.42;;;15.77;;
51824;SDS011;37879;52.986;6.282;2024-03-07T10:11:08;32.20;;;15.57;;
51824;SDS011;37879;52.986;6.282;2024-03-07T10:13:34;31.90;;;16.42;;
51824;SDS011;37879;52.986;6.282;2024-03-07T10:16:03;29.38;;;15.15;;
51824;SDS011;37879;52.986;6.282;2024-03-07T10:18:30;29.15;;;14.52;;
51824;SDS011;37879;52.986;6.282;2024-03-07T10:20:56;28.95;;;14.23;;
51824;SDS011;37879;52.986;6.282;2024-03-07T10:23:22;28.85;;;16.48;;
51824;SDS011;37879;52.986;6.282;2024-03-07T10:25:49;28.25;;;15.93;;
51824;SDS011;37879;52.986;6.282;2024-03-07T10:28:16;28.75;;;15.98;;
51824;SDS011;37879;52.986;6.282;2024-03-07T10:30:42;30.15;;;16.17;;
51824;SDS011;37879;52.986;6.282;2024-03-07T10:33:15;29.92;;;16.40;;
51824;SDS011;37879;52.986;6.282;2024-03-07T10:35:42;31.70;;;16.35;;
51824;SDS011;37879;52.986;6.282;2024-03-07T10:38:11;32.00;;;15.80;;
51824;SDS011;37879;52.986;6.282;2024-03-07T10:40:38;28.75;;;15.43;;
51824;SDS011;37879;52.986;6.282;2024-03-07T10:43:11;25.60;;;13.65;;
51824;SDS011;37879;52.986;6.282;2024-03-07T10:45:46;28.15;;;14.82;;
51824;SDS011;37879;52.986;6.282;2024-03-07T10:48:13;27.48;;;14.88;;
51824;SDS011;37879;52.986;6.282;2024-03-07T10:53:29;29.83;;;14.32;;
51824;SDS011;37879;52.986;6.282;2024-03-07T10:56:22;26.35;;;13.10;;
51824;SDS011;37879;52.986;6.282;2024-03-07T11:01:26;24.95;;;14.27;;
51824;SDS011;37879;52.986;6.282;2024-03-07T11:03:54;27.17;;;12.93;;
51824;SDS011;37879;52.986;6.282;2024-03-07T11:06:22;22.38;;;12.18;;
51824;SDS011;37879;52.986;6.282;2024-03-07T11:08:50;18.95;;;9.63;;
51824;SDS011;37879;52.986;6.282;2024-03-07T11:11:16;28.13;;;16.05;;
51824;SDS011;37879;52.986;6.282;2024-03-07T11:13:42;23.58;;;13.00;;
51824;SDS011;37879;52.986;6.282;2024-03-07T11:16:10;25.27;;;14.15;;
51824;SDS011;37879;52.986;6.282;2024-03-07T11:18:38;24.25;;;12.32;;
51824;SDS011;37879;52.986;6.282;2024-03-07T11:21:05;25.65;;;13.68;;
51824;SDS011;37879;52.986;6.282;2024-03-07T11:23:33;17.63;;;8.20;;
51824;SDS011;37879;52.986;6.282;2024-03-07T11:26:08;26.27;;;13.27;;
51824;SDS011;37879;52.986;6.282;2024-03-07T11:28:39;24.60;;;13.02;;
51824;SDS011;37879;52.986;6.282;2024-03-07T11:31:07;24.95;;;13.20;;
51824;SDS011;37879;52.986;6.282;2024-03-07T11:33:38;27.85;;;14.98;;
51824;SDS011;37879;52.986;6.282;2024-03-07T11:36:08;26.67;;;13.57;;
51824;SDS011;37879;52.986;6.282;2024-03-07T11:38:44;25.77;;;13.52;;
51824;SDS011;37879;52.986;6.282;2024-03-07T11:41:11;24.15;;;13.70;;
51824;SDS011;37879;52.986;6.282;2024-03-07T11:43:39;24.30;;;13.63;;
51824;SDS011;37879;52.986;6.282;2024-03-07T11:46:05;25.92;;;13.45;;
51824;SDS011;37879;52.986;6.282;2024-03-07T11:48:38;26.17;;;13.23;;
51824;SDS011;37879;52.986;6.282;2024-03-07T11:51:06;22.85;;;13.23;;
51824;SDS011;37879;52.986;6.282;2024-03-07T11:53:35;28.15;;;15.05;;
51824;SDS011;37879;52.986;6.282;2024-03-07T11:56:03;25.50;;;14.25;;
51824;SDS011;37879;52.986;6.282;2024-03-07T11:58:37;26.50;;;13.98;;
51824;SDS011;37879;52.986;6.282;2024-03-07T12:01:06;26.27;;;14.00;;
51824;SDS011;37879;52.986;6.282;2024-03-07T12:03:36;23.40;;;13.13;;
51824;SDS011;37879;52.986;6.282;2024-03-07T12:06:02;27.20;;;14.23;;
51824;SDS011;37879;52.986;6.282;2024-03-07T12:08:28;25.52;;;13.50;;
51824;SDS011;37879;52.986;6.282;2024-03-07T12:10:54;23.95;;;12.43;;
51824;SDS011;37879;52.986;6.282;2024-03-07T12:13:21;27.25;;;14.48;;
51824;SDS011;37879;52.986;6.282;2024-03-07T12:15:50;27.15;;;13.93;;
51824;SDS011;37879;52.986;6.282;2024-03-07T12:18:20;23.38;;;13.48;;
51824;SDS011;37879;52.986;6.282;2024-03-07T12:20:47;25.13;;;13.57;;
51824;SDS011;37879;52.986;6.282;2024-03-07T12:23:19;26.65;;;15.13;;
51824;SDS011;37879;52.986;6.282;2024-03-07T12:25:47;24.67;;;13.95;;
51824;SDS011;37879;52.986;6.282;2024-03-07T12:28:13;28.05;;;14.13;;
51824;SDS011;37879;52.986;6.282;2024-03-07T12:33:11;26.00;;;14.23;;
51824;SDS011;37879;52.986;6.282;2024-03-07T12:35:39;25.45;;;14.20;;
51824;SDS011;37879;52.986;6.282;2024-03-07T12:38:08;27.95;;;14.55;;
51824;SDS011;37879;52.986;6.282;2024-03-07T12:40:41;26.15;;;13.82;;
51824;SDS011;37879;52.986;6.282;2024-03-07T12:43:17;25.05;;;13.25;;
51824;SDS011;37879;52.986;6.282;2024-03-07T12:45:44;21.90;;;12.02;;
51824;SDS011;37879;52.986;6.282;2024-03-07T12:48:20;22.02;;;12.90;;
51824;SDS011;37879;52.986;6.282;2024-03-07T12:50:49;24.48;;;12.38;;
51824;SDS011;37879;52.986;6.282;2024-03-07T12:55:54;22.00;;;11.77;;
51824;SDS011;37879;52.986;6.282;2024-03-07T12:58:20;23.55;;;13.13;;
51824;SDS011;37879;52.986;6.282;2024-03-07T13:00:50;21.95;;;12.07;;
51824;SDS011;37879;52.986;6.282;2024-03-07T13:03:20;22.65;;;11.55;;
51824;SDS011;37879;52.986;6.282;2024-03-07T13:05:46;22.42;;;11.07;;
51824;SDS011;37879;52.986;6.282;2024-03-07T13:08:12;22.05;;;12.82;;
51824;SDS011;37879;52.986;6.282;2024-03-07T13:10:41;20.65;;;12.25;;
51824;SDS011;37879;52.986;6.282;2024-03-07T13:13:07;21.85;;;11.93;;
51824;SDS011;37879;52.986;6.282;2024-03-07T13:15:36;21.13;;;11.32;;
51824;SDS011;37879;52.986;6.282;2024-03-07T13:18:03;21.75;;;12.35;;
51824;SDS011;37879;52.986;6.282;2024-03-07T13:20:30;19.88;;;11.70;;
51824;SDS011;37879;52.986;6.282;2024-03-07T13:22:56;19.58;;;11.15;;
51824;SDS011;37879;52.986;6.282;2024-03-07T13:25:23;18.23;;;10.38;;
51824;SDS011;37879;52.986;6.282;2024-03-07T13:27:59;21.55;;;11.57;;
51824;SDS011;37879;52.986;6.282;2024-03-07T13:30:38;20.27;;;9.98;;
51824;SDS011;37879;52.986;6.282;2024-03-07T13:33:05;23.23;;;13.00;;
51824;SDS011;37879;52.986;6.282;2024-03-07T13:35:31;25.75;;;12.95;;
51824;SDS011;37879;52.986;6.282;2024-03-07T13:37:57;19.83;;;10.57;;
51824;SDS011;37879;52.986;6.282;2024-03-07T13:40:26;21.48;;;11.40;;
51824;SDS011;37879;52.986;6.282;2024-03-07T13:42:56;21.23;;;12.25;;
51824;SDS011;37879;52.986;6.282;2024-03-07T13:45:23;22.30;;;11.30;;
51824;SDS011;37879;52.986;6.282;2024-03-07T13:47:51;29.20;;;13.50;;
51824;SDS011;37879;52.986;6.282;2024-03-07T13:50:19;25.75;;;13.38;;
51824;SDS011;37879;52.986;6.282;2024-03-07T13:52:48;28.85;;;14.85;;
51824;SDS011;37879;52.986;6.282;2024-03-07T13:55:33;25.30;;;14.27;;
51824;SDS011;37879;52.986;6.282;2024-03-07T13:58:06;25.02;;;14.10;;
51824;SDS011;37879;52.986;6.282;2024-03-07T14:00:42;25.95;;;13.35;;
51824;SDS011;37879;52.986;6.282;2024-03-07T14:04:05;20.77;;;12.38;;
51824;SDS011;37879;52.986;6.282;2024-03-07T14:13:06;28.88;;;13.57;;
51824;SDS011;37879;52.986;6.282;2024-03-07T14:27:34;19.52;;;11.65;;
51824;SDS011;37879;52.986;6.282;2024-03-07T14:32:55;23.13;;;11.52;;
51824;SDS011;37879;52.986;6.282;2024-03-07T14:35:31;28.17;;;13.48;;
51824;SDS011;37879;52.986;6.282;2024-03-07T14:38:23;24.63;;;11.93;;
51824;SDS011;37879;52.986;6.282;2024-03-07T14:41:15;26.08;;;12.35;;
51824;SDS011;37879;52.986;6.282;2024-03-07T14:43:43;21.15;;;11.65;;
51824;SDS011;37879;52.986;6.282;2024-03-07T14:46:10;23.40;;;13.35;;
51824;SDS011;37879;52.986;6.282;2024-03-07T14:48:38;19.80;;;11.13;;
51824;SDS011;37879;52.986;6.282;2024-03-07T14:51:05;22.35;;;12.38;;
51824;SDS011;37879;52.986;6.282;2024-03-07T14:53:34;23.00;;;11.65;;
51824;SDS011;37879;52.986;6.282;2024-03-07T14:56:00;24.92;;;12.10;;
51824;SDS011;37879;52.986;6.282;2024-03-07T14:58:25;23.42;;;12.57;;
51824;SDS011;37879;52.986;6.282;2024-03-07T15:00:51;23.73;;;11.52;;
51824;SDS011;37879;52.986;6.282;2024-03-07T15:03:19;19.77;;;11.18;;